Погода METAR - Абакан

Кемерово, Абакан, Красноярск, Новосибирск
Код METAR: UNAA 021700Z 35001MPS 5000 BR FU NSC M24/M25 Q1028 R02/310057 NOSIG RMK QFE748

Погода - Сейчас

Время: 2023-02-03 00:00, местное
Направление ветра: Север (350°)
Скорость ветра: 1 м/с
Видимость:
Температура: -24°C
Точка росы: -25°C
Атмосферное давление: 1028 гПа

Архив погоды

Время, местное Направление Скорость, м/с Температура, °C Точка росы, °C Давление, гПа
2023-02-03 00:00 С (350°) 1 -24 -25 1028
2023-02-02 21:30 ССЗ (330°) 1 -22 -23 1029
2023-01-31 18:30 С (350°) 2 -11 -13 1029
2023-01-31 12:00 Штиль 0 -8 -12 1030
2023-01-30 04:30 ЮЗ (230°) 7 -6 -14 1019
2023-01-29 08:00 Ю (190°) 8 -4 -13 1017
2023-01-28 14:00 ЮЮЗ (200°) 8 -2 -12 1021
2023-01-25 00:00 ЮЮЗ (200°) 7 -9 -14 1022
2023-01-24 17:30 С (360°) 2 -14 -15 1021
2023-01-21 19:30 С (10°) 6 -27 -32 1047
2023-01-17 10:00 ЮЗ (210°) 7 -8 -15 1023
2023-01-19 00:00 Штиль 0 -15 -18 1034
2023-01-13 09:30 З (280°) 1 -26 -29 1039
2023-01-16 12:00 ЮЮЗ (200°) 7 -9 -15 1032
2023-01-14 19:30 Ю (190°) 6 -8 -14 1030
2023-01-13 21:30 С (350°) 1 -14 -18 1035
2023-01-13 14:30 Штиль 0 -19 -23 1037
2023-01-12 11:30 Ю (190°) 3 -22 -29 1044
2023-01-12 07:30 ЗЮЗ (240°) 2 -27 -32 1042
2023-01-08 11:30 Штиль 0 -11 -12 1018
2023-01-08 01:00 Ю (190°) 1 -10 -12 1020
2023-01-06 15:00 Штиль 0 -2 -4 1006
2023-01-05 14:00 ЗЮЗ (260°) 2 -15 -17 1016
2023-01-03 10:30 ВЮВ (110°) 1 -19 -21 1029
2023-01-01 21:30 Штиль 0 -24 -25 1037
2022-12-31 05:30 ССЗ (340°) 1 -20 -21 1037
2022-12-30 21:30 СЗ (320°) 2 -24 -26 1036
2022-12-26 16:00 Штиль 0 -10 -10 1034
2022-12-25 09:30 Штиль 0 -20 -21 1035
2022-12-25 04:00 Штиль 0 -20 -21 1035
2022-12-25 03:30 З (280°) 1 -21 -22 1035
2022-12-24 18:30 Штиль 0 -23 -24 1037
2022-12-20 16:30 Штиль 0 -8 -8 1019
2022-12-20 02:00 Штиль 0 -11 -11 1023
2022-12-19 13:30 ЮЗ (210°) 4 -8 -14 1033
2022-12-18 04:00 ЗСЗ (290°) 1 -27 -29 1028
2022-12-17 19:00 ЮЗ (230°) 1 -23 -24 1033
2022-12-17 13:00 Штиль 0 -20 -21 1037
2022-12-16 17:00 С (350°) 2 -15 -16 1050
2022-12-15 22:30 Штиль 0 -23 -24 1052
2022-12-15 09:30 Ю (190°) 1 -24 -26 1051
2022-12-13 01:30 Штиль 0 -28 -30 1033
2022-12-08 00:00 Штиль 0 -28 -30 1037
2022-12-12 03:00 С (350°) 2 -15 -16 1038
2022-12-10 21:30 ЮЗ (210°) 10 -11 -16 1030
2022-12-10 06:00 Штиль 0 -30 -32 1032
2022-12-09 18:30 СЗ (300°) 1 -25 -26 1034
2022-12-07 16:30 Штиль 0 -22 -25 1037